createdAt,value
2022-11-10T00:00:06.675Z,99.01
2022-11-10T00:01:06.720Z,98.80
2022-11-10T00:02:06.661Z,98.75
2022-11-10T00:03:06.629Z,97.20
2022-11-10T00:04:06.694Z,97.82
2022-11-10T00:05:06.637Z,98.28
2022-11-10T00:06:06.619Z,97.45
2022-11-10T00:07:06.772Z,97.77
2022-11-10T00:08:06.664Z,97.77
2022-11-10T00:09:06.599Z,98.69
2022-11-10T00:10:06.583Z,98.90
2022-11-10T00:11:06.599Z,99.21
2022-11-10T00:12:06.670Z,98.90
2022-11-10T00:13:06.561Z,99.10
2022-11-10T00:14:06.581Z,98.33
2022-11-10T00:15:06.574Z,98.90
2022-11-10T00:16:06.547Z,98.94
2022-11-10T00:17:06.535Z,99.46
2022-11-10T00:18:06.570Z,99.25
2022-11-10T00:19:06.530Z,99.56
2022-11-10T00:20:06.525Z,98.94
2022-11-10T00:21:06.541Z,98.99
2022-11-10T00:22:06.505Z,99.81
2022-11-10T00:23:06.522Z,99.91
2022-11-10T00:24:06.492Z,99.99
2022-11-10T00:25:06.498Z,99.99
2022-11-10T00:26:06.477Z,99.99
2022-11-10T00:27:06.503Z,99.71
2022-11-10T00:28:06.475Z,99.99
2022-11-10T00:29:06.497Z,99.81
2022-11-10T00:30:06.472Z,99.91
2022-11-10T00:31:06.467Z,99.51
2022-11-10T00:32:06.456Z,98.88
2022-11-10T00:33:06.441Z,98.58
2022-11-10T00:34:06.567Z,98.93
2022-11-10T00:35:06.451Z,99.65
2022-11-10T00:36:06.419Z,99.34
2022-11-10T00:37:06.433Z,99.86
2022-11-10T00:38:06.423Z,99.99
2022-11-10T00:39:06.411Z,99.99
2022-11-10T00:40:06.416Z,99.99
2022-11-10T00:41:06.381Z,99.99
2022-11-10T00:42:06.375Z,99.99
2022-11-10T00:43:06.402Z,99.99
2022-11-10T00:44:06.387Z,99.99
2022-11-10T00:45:06.392Z,99.99
2022-11-10T00:46:06.369Z,99.99
2022-11-10T00:47:06.354Z,99.99
2022-11-10T00:48:06.349Z,99.99
2022-11-10T00:49:06.334Z,99.99
2022-11-10T00:50:06.350Z,99.90
2022-11-10T00:51:06.338Z,99.70
2022-11-10T00:52:06.325Z,99.60
2022-11-10T00:53:06.322Z,99.18
2022-11-10T00:54:06.321Z,99.70
2022-11-10T00:55:06.320Z,98.92
2022-11-10T00:56:06.332Z,99.85
2022-11-10T00:57:06.322Z,99.43
2022-11-10T00:58:06.307Z,99.99
2022-11-10T00:59:06.289Z,99.99
2022-11-10T01:00:06.273Z,99.99
2022-11-10T01:01:06.296Z,99.85
2022-11-10T01:02:06.379Z,99.99
2022-11-10T01:03:06.260Z,99.99
2022-11-10T01:04:06.260Z,99.99
2022-11-10T01:05:06.254Z,99.99
2022-11-10T01:06:06.278Z,99.99
2022-11-10T01:07:06.279Z,99.85
2022-11-10T01:08:06.244Z,99.99
2022-11-10T01:09:06.225Z,99.99
2022-11-10T01:10:06.210Z,99.99
2022-11-10T01:11:06.225Z,99.99
2022-11-10T01:12:06.204Z,99.99
2022-11-10T01:13:06.235Z,99.99
2022-11-10T01:14:06.206Z,99.99
2022-11-10T01:15:06.199Z,99.99
2022-11-10T01:16:06.183Z,99.99
2022-11-10T01:17:06.184Z,99.99
2022-11-10T01:18:06.308Z,99.99
2022-11-10T01:19:06.171Z,99.99
2022-11-10T01:20:06.162Z,99.99
2022-11-10T01:21:06.158Z,99.99
2022-11-10T01:22:06.166Z,99.99
2022-11-10T01:23:06.149Z,99.99
2022-11-10T01:24:06.172Z,99.99
2022-11-10T01:25:06.148Z,99.99
2022-11-10T01:26:06.112Z,99.99
2022-11-10T01:27:06.132Z,99.99
2022-11-10T01:28:06.128Z,99.99
2022-11-10T01:29:06.133Z,99.99
2022-11-10T01:30:06.084Z,99.99
2022-11-10T01:31:06.111Z,99.99
2022-11-10T01:32:06.101Z,99.99
2022-11-10T01:33:06.110Z,99.99
2022-11-10T01:34:06.098Z,99.99
2022-11-10T01:35:06.114Z,99.99
2022-11-10T01:36:06.073Z,99.99
2022-11-10T01:37:06.061Z,99.99
2022-11-10T01:38:06.079Z,99.99
2022-11-10T01:39:06.079Z,99.99
2022-11-10T01:40:06.105Z,99.99
2022-11-10T01:41:06.033Z,99.99
2022-11-10T01:42:06.028Z,99.99
2022-11-10T01:43:06.025Z,99.99
2022-11-10T01:44:06.020Z,99.99
2022-11-10T01:45:06.016Z,99.99
2022-11-10T01:46:06.018Z,99.99
2022-11-10T01:47:06.016Z,99.99
2022-11-10T01:48:05.995Z,99.99
2022-11-10T01:49:05.986Z,99.99
2022-11-10T01:50:06.014Z,99.99
2022-11-10T01:51:06.200Z,99.99
2022-11-10T01:52:05.998Z,99.99
2022-11-10T01:53:05.975Z,99.99
2022-11-10T01:54:05.984Z,99.99
2022-11-10T01:55:05.951Z,99.07
2022-11-10T01:56:05.957Z,99.79
2022-11-10T01:57:06.084Z,99.99
2022-11-10T01:58:05.943Z,99.99
2022-11-10T01:59:05.925Z,99.99
2022-11-10T02:00:05.926Z,99.99
2022-11-10T02:01:05.930Z,99.99
2022-11-10T02:02:05.992Z,99.99
2022-11-10T02:03:05.898Z,99.99
2022-11-10T02:04:05.904Z,99.99
2022-11-10T02:05:05.872Z,99.99
2022-11-10T02:06:05.883Z,99.99
2022-11-10T02:07:05.896Z,99.99
2022-11-10T02:08:05.914Z,99.99
2022-11-10T02:09:06.864Z,99.99
2022-11-10T02:10:05.875Z,99.99
2022-11-10T02:11:05.860Z,99.99
2022-11-10T02:12:05.877Z,99.99
2022-11-10T02:13:05.883Z,99.99
2022-11-10T02:14:05.836Z,99.99
2022-11-10T02:15:05.834Z,99.99
2022-11-10T02:16:05.811Z,99.99
2022-11-10T02:17:05.843Z,99.99
2022-11-10T02:18:05.851Z,99.99
2022-11-10T02:19:06.187Z,99.99
2022-11-10T02:20:05.794Z,99.99
2022-11-10T02:21:05.783Z,99.99
2022-11-10T02:22:05.797Z,99.99
2022-11-10T02:23:05.785Z,99.99
2022-11-10T02:24:05.816Z,99.99
2022-11-10T02:25:05.762Z,99.99
2022-11-10T02:26:05.769Z,99.99
2022-11-10T02:27:05.755Z,99.99
2022-11-10T02:28:05.751Z,99.99
2022-11-10T02:29:05.725Z,99.99
2022-11-10T02:30:05.753Z,99.99
2022-11-10T02:31:05.733Z,99.99
2022-11-10T02:32:05.731Z,99.99
2022-11-10T02:33:05.731Z,99.99
2022-11-10T02:34:05.723Z,99.99
2022-11-10T02:35:05.719Z,99.99
2022-11-10T02:36:05.700Z,99.99
2022-11-10T02:37:05.674Z,99.99
2022-11-10T02:38:05.717Z,99.99
2022-11-10T02:39:05.696Z,99.99
2022-11-10T02:40:05.692Z,99.99
2022-11-10T02:41:05.691Z,99.99
2022-11-10T02:42:05.668Z,99.99
2022-11-10T02:43:05.666Z,99.99
2022-11-10T02:44:05.656Z,99.99
2022-11-10T02:45:05.651Z,99.99
2022-11-10T02:46:05.657Z,99.99
2022-11-10T02:47:05.654Z,99.99
2022-11-10T02:48:05.606Z,99.99
2022-11-10T02:49:05.652Z,99.99
2022-11-10T02:50:05.604Z,99.99
2022-11-10T02:51:05.617Z,99.99
2022-11-10T02:52:05.631Z,99.99
2022-11-10T02:53:05.587Z,99.99
2022-11-10T02:54:05.586Z,99.99
2022-11-10T02:55:05.576Z,99.99
2022-11-10T02:56:05.590Z,99.99
2022-11-10T02:57:05.672Z,99.99
2022-11-10T02:58:05.557Z,99.99
2022-11-10T02:59:05.561Z,99.99
2022-11-10T03:00:05.559Z,99.99
2022-11-10T03:01:05.624Z,99.99
2022-11-10T03:02:05.515Z,99.99
2022-11-10T03:03:05.644Z,99.99
2022-11-10T03:04:05.529Z,99.99
2022-11-10T03:05:05.523Z,99.99
2022-11-10T03:06:05.518Z,99.99
2022-11-10T03:07:05.534Z,99.99
2022-11-10T03:08:05.627Z,99.99
2022-11-10T03:09:05.498Z,99.99
2022-11-10T03:10:05.505Z,99.99
2022-11-10T03:11:05.481Z,99.99
2022-11-10T03:12:05.491Z,99.99
2022-11-10T03:13:05.468Z,99.99
2022-11-10T03:14:05.499Z,99.99
2022-11-10T03:15:05.465Z,99.99
2022-11-10T03:16:05.460Z,99.77
2022-11-10T03:17:05.458Z,99.99
2022-11-10T03:18:05.455Z,99.99
2022-11-10T03:19:05.548Z,99.99
2022-11-10T03:20:05.434Z,99.99
2022-11-10T03:21:05.423Z,99.99
2022-11-10T03:22:05.423Z,99.99
2022-11-10T03:23:05.407Z,99.99
2022-11-10T03:24:05.406Z,99.99
2022-11-10T03:25:05.429Z,99.99
2022-11-10T03:26:05.385Z,99.99
2022-11-10T03:27:05.394Z,99.99
2022-11-10T03:28:05.372Z,99.99
2022-11-10T03:29:05.379Z,99.99
2022-11-10T03:30:05.428Z,99.99
2022-11-10T03:31:05.384Z,99.99
2022-11-10T03:32:05.365Z,99.99
2022-11-10T03:33:05.366Z,99.99
2022-11-10T03:34:05.347Z,99.99
2022-11-10T03:35:05.336Z,99.99
2022-11-10T03:36:05.364Z,99.99
2022-11-10T03:37:05.320Z,99.99
2022-11-10T03:38:05.313Z,99.99
2022-11-10T03:39:05.306Z,99.99
2022-11-10T03:40:05.318Z,99.99
2022-11-10T03:41:19.209Z,99.99
2022-11-10T03:42:07.324Z,99.99
2022-11-10T03:43:05.288Z,99.99
2022-11-10T03:44:05.297Z,99.99
2022-11-10T03:45:05.288Z,99.99
2022-11-10T03:46:05.277Z,99.99
2022-11-10T03:47:05.369Z,99.99
2022-11-10T03:48:05.251Z,99.99
2022-11-10T03:49:05.242Z,99.99
2022-11-10T03:50:05.264Z,99.99
2022-11-10T03:51:05.244Z,99.99
2022-11-10T03:52:05.339Z,99.99
2022-11-10T03:53:05.248Z,99.99
2022-11-10T03:54:05.239Z,99.99
2022-11-10T03:55:05.223Z,99.99
2022-11-10T03:56:05.215Z,99.99
2022-11-10T03:57:05.197Z,99.99
2022-11-10T03:58:05.301Z,99.99
2022-11-10T03:59:05.221Z,99.99
2022-11-10T04:00:05.311Z,99.99
2022-11-10T04:01:05.179Z,99.99
2022-11-10T04:02:05.212Z,99.99
2022-11-10T04:03:05.188Z,99.99
2022-11-10T04:04:05.150Z,99.99
2022-11-10T04:05:05.139Z,99.99
2022-11-10T04:06:05.131Z,99.99
2022-11-10T04:07:05.343Z,99.99
2022-11-10T04:08:05.135Z,99.99
2022-11-10T04:09:05.126Z,99.99
2022-11-10T04:10:05.116Z,99.99
2022-11-10T04:11:05.099Z,99.99
2022-11-10T04:12:05.107Z,99.99
2022-11-10T04:13:05.087Z,99.99
2022-11-10T04:14:05.118Z,99.99
2022-11-10T04:15:05.087Z,99.99
2022-11-10T04:16:05.083Z,99.99
2022-11-10T04:17:05.095Z,99.99
2022-11-10T04:18:05.110Z,99.99
2022-11-10T04:19:05.073Z,99.99
2022-11-10T04:20:05.086Z,99.99
2022-11-10T04:21:05.046Z,99.99
2022-11-10T04:22:05.039Z,99.99
2022-11-10T04:23:05.038Z,99.99
2022-11-10T04:24:05.035Z,99.99
2022-11-10T04:25:05.159Z,99.99
2022-11-10T04:26:05.024Z,99.99
2022-11-10T04:27:05.025Z,99.99
2022-11-10T04:28:05.011Z,99.99
2022-11-10T04:29:04.983Z,99.99
2022-11-10T04:30:04.990Z,99.99
2022-11-10T04:31:05.006Z,99.99
2022-11-10T04:32:04.979Z,99.99
2022-11-10T04:33:04.985Z,99.99
2022-11-10T04:34:04.979Z,99.99
2022-11-10T04:35:04.978Z,99.99
2022-11-10T04:36:04.984Z,99.99
2022-11-10T04:37:04.943Z,99.99
2022-11-10T04:38:04.957Z,99.99
2022-11-10T04:39:04.948Z,99.99
2022-11-10T04:40:04.928Z,99.99
2022-11-10T04:41:04.931Z,99.99
2022-11-10T04:42:05.372Z,99.99
2022-11-10T04:43:04.925Z,99.99
2022-11-10T04:44:04.896Z,99.99
2022-11-10T04:45:04.909Z,99.99
2022-11-10T04:46:04.914Z,99.99
2022-11-10T04:47:10.576Z,99.99
2022-11-10T04:48:06.887Z,99.99
2022-11-10T04:49:04.870Z,99.99
2022-11-10T04:50:04.874Z,99.99
2022-11-10T04:51:04.871Z,99.99
2022-11-10T04:52:04.909Z,99.99
2022-11-10T04:53:04.886Z,99.99
2022-11-10T04:54:04.927Z,99.99
2022-11-10T04:55:04.877Z,99.99
2022-11-10T04:56:04.908Z,99.99
2022-11-10T04:57:04.827Z,99.99
2022-11-10T04:58:05.669Z,99.99
2022-11-10T04:59:04.817Z,99.99
2022-11-10T05:00:04.829Z,99.99
2022-11-10T05:01:04.842Z,99.99
2022-11-10T05:02:04.806Z,99.99
2022-11-10T05:03:04.795Z,99.99
2022-11-10T05:04:04.807Z,99.99
2022-11-10T05:05:04.808Z,99.99
2022-11-10T05:06:04.763Z,99.99
2022-11-10T05:07:04.809Z,99.99
2022-11-10T05:08:04.777Z,99.99
2022-11-10T05:09:04.751Z,99.99
2022-11-10T05:10:04.747Z,99.99
2022-11-10T05:11:04.755Z,99.99
2022-11-10T05:12:04.749Z,99.99
2022-11-10T05:13:04.732Z,99.99
2022-11-10T05:14:04.732Z,99.99
2022-11-10T05:15:04.735Z,99.99
2022-11-10T05:16:04.687Z,99.99
2022-11-10T05:17:04.718Z,99.99
2022-11-10T05:18:04.713Z,99.99
2022-11-10T05:19:04.689Z,99.99
2022-11-10T05:20:04.687Z,99.99
2022-11-10T05:21:04.698Z,99.99
2022-11-10T05:22:04.677Z,99.99
2022-11-10T05:23:04.686Z,99.99
2022-11-10T05:24:04.662Z,99.99
2022-11-10T05:25:04.665Z,99.99
2022-11-10T05:26:04.660Z,99.99
2022-11-10T05:27:04.681Z,99.99
2022-11-10T05:28:04.656Z,99.99
2022-11-10T05:29:04.619Z,99.99
2022-11-10T05:30:04.629Z,99.99
2022-11-10T05:31:04.616Z,99.99
2022-11-10T05:32:04.612Z,99.99
2022-11-10T05:33:04.614Z,99.99
2022-11-10T05:34:04.604Z,99.99
2022-11-10T05:35:04.589Z,99.99
2022-11-10T05:36:04.579Z,99.99
2022-11-10T05:37:04.588Z,99.99
2022-11-10T05:38:04.596Z,99.99
2022-11-10T05:39:04.578Z,99.99
2022-11-10T05:40:04.557Z,99.99
2022-11-10T05:41:04.557Z,99.99
2022-11-10T05:42:04.566Z,99.99
2022-11-10T05:43:04.556Z,99.99
2022-11-10T05:44:04.540Z,99.99
2022-11-10T05:45:04.531Z,99.99
2022-11-10T05:46:04.538Z,99.99
2022-11-10T05:47:04.574Z,99.99
2022-11-10T05:48:04.512Z,99.99
2022-11-10T05:49:04.508Z,99.99
2022-11-10T05:50:04.500Z,99.99
2022-11-10T05:51:04.497Z,99.99
2022-11-10T05:52:04.498Z,99.99
2022-11-10T05:53:04.503Z,99.99
2022-11-10T05:54:04.508Z,99.99
2022-11-10T05:55:04.476Z,99.99
2022-11-10T05:56:04.465Z,99.99
2022-11-10T05:57:04.474Z,99.99
2022-11-10T05:58:04.467Z,99.99
2022-11-10T05:59:07.233Z,99.99
2022-11-10T06:00:04.464Z,99.99
2022-11-10T06:01:04.441Z,99.99
2022-11-10T06:02:04.451Z,99.99
2022-11-10T06:03:04.502Z,99.99
2022-11-10T06:04:04.491Z,99.99
2022-11-10T06:05:04.410Z,99.99
2022-11-10T06:06:05.355Z,99.99
2022-11-10T06:07:04.589Z,99.99
2022-11-10T06:08:04.404Z,99.99
2022-11-10T06:09:05.367Z,99.99
2022-11-10T06:10:04.383Z,99.99
2022-11-10T06:11:04.379Z,99.99
2022-11-10T06:12:04.388Z,99.99
2022-11-10T06:13:04.365Z,99.99
2022-11-10T06:14:04.345Z,99.99
2022-11-10T06:15:04.351Z,99.99
2022-11-10T06:16:04.316Z,99.99
2022-11-10T06:17:04.352Z,99.99
2022-11-10T06:18:04.348Z,99.99
2022-11-10T06:19:04.314Z,99.99
2022-11-10T06:20:04.322Z,99.99
2022-11-10T06:21:04.305Z,99.99
2022-11-10T06:22:07.657Z,99.99
2022-11-10T06:23:05.408Z,99.99
2022-11-10T06:24:04.356Z,99.99
2022-11-10T06:25:04.275Z,99.99
2022-11-10T06:26:04.311Z,99.99
2022-11-10T06:27:04.279Z,99.99
2022-11-10T06:28:04.275Z,99.99
2022-11-10T06:29:04.283Z,99.99
2022-11-10T06:30:04.250Z,99.99
2022-11-10T06:31:04.242Z,99.99
2022-11-10T06:32:04.258Z,99.99
2022-11-10T06:33:04.247Z,99.99
2022-11-10T06:34:04.219Z,99.99
2022-11-10T06:35:04.220Z,99.99
2022-11-10T06:36:04.223Z,99.99
2022-11-10T06:37:04.228Z,99.99
2022-11-10T06:38:04.220Z,99.99
2022-11-10T06:39:04.212Z,99.99
2022-11-10T06:40:04.204Z,99.99
2022-11-10T06:41:04.200Z,99.99
2022-11-10T06:42:04.202Z,99.99
2022-11-10T06:43:04.177Z,99.99
2022-11-10T06:44:04.155Z,99.99
2022-11-10T06:45:04.170Z,99.99
2022-11-10T06:46:04.150Z,99.99
2022-11-10T06:47:04.125Z,99.99
2022-11-10T06:48:05.263Z,99.99
2022-11-10T06:49:04.153Z,99.99
2022-11-10T06:50:04.121Z,99.99
2022-11-10T06:51:04.119Z,99.99
2022-11-10T06:52:04.122Z,99.99
2022-11-10T06:53:04.113Z,99.99
2022-11-10T06:54:04.239Z,99.99
2022-11-10T06:55:04.105Z,99.99
2022-11-10T06:56:04.088Z,99.99
2022-11-10T06:57:04.102Z,99.99
2022-11-10T06:58:04.090Z,99.99
2022-11-10T06:59:04.082Z,99.99
2022-11-10T07:00:04.068Z,99.99
2022-11-10T07:01:04.109Z,99.99
2022-11-10T07:02:04.065Z,99.99
2022-11-10T07:03:04.072Z,99.99
2022-11-10T07:04:19.162Z,99.99
2022-11-10T07:05:06.149Z,99.99
2022-11-10T07:06:04.010Z,99.99
2022-11-10T07:07:04.049Z,99.99
2022-11-10T07:08:03.995Z,99.99
2022-11-10T07:09:04.006Z,99.99
2022-11-10T07:10:06.963Z,99.99
2022-11-10T07:11:05.035Z,99.99
2022-11-10T07:12:03.978Z,99.99
2022-11-10T07:13:03.975Z,99.99
2022-11-10T07:14:03.980Z,99.99
2022-11-10T07:15:03.983Z,99.99
2022-11-10T07:16:03.982Z,99.99
2022-11-10T07:17:04.006Z,99.99
2022-11-10T07:18:03.947Z,99.99
2022-11-10T07:19:03.935Z,99.99
2022-11-10T07:20:04.939Z,99.99
2022-11-10T07:21:03.977Z,99.99
2022-11-10T07:22:09.671Z,99.99
2022-11-10T07:23:05.917Z,99.99
2022-11-10T07:24:03.911Z,99.99
2022-11-10T07:25:03.903Z,99.99
2022-11-10T07:26:03.909Z,99.99
2022-11-10T07:27:03.908Z,99.99
2022-11-10T07:28:03.912Z,99.99
2022-11-10T07:29:03.894Z,99.99
2022-11-10T07:30:03.869Z,99.99
2022-11-10T07:31:03.873Z,99.99
2022-11-10T07:32:03.877Z,99.99
2022-11-10T07:33:03.862Z,99.99
2022-11-10T07:34:03.838Z,99.99
2022-11-10T07:35:03.847Z,99.99
2022-11-10T07:36:03.849Z,99.99
2022-11-10T07:37:03.832Z,99.99
2022-11-10T07:38:03.827Z,99.99
2022-11-10T07:39:04.696Z,99.99
2022-11-10T07:40:03.796Z,99.99
2022-11-10T07:41:03.847Z,99.99
2022-11-10T07:42:03.820Z,99.99
2022-11-10T07:43:03.794Z,99.99
2022-11-10T07:44:03.791Z,99.99
2022-11-10T07:45:03.811Z,99.99
2022-11-10T07:46:03.786Z,99.99
2022-11-10T07:47:03.780Z,99.99
2022-11-10T07:48:03.761Z,99.99
2022-11-10T07:49:03.756Z,99.99
2022-11-10T07:50:03.767Z,99.99
2022-11-10T07:51:03.762Z,99.99
2022-11-10T07:52:03.746Z,97.67
2022-11-10T07:53:04.736Z,97.22
2022-11-10T07:54:03.718Z,95.17
2022-11-10T07:55:03.717Z,94.10
2022-11-10T07:56:03.716Z,92.88
2022-11-10T07:57:04.737Z,91.73
2022-11-10T07:58:03.719Z,89.20
2022-11-10T07:59:03.689Z,85.71
2022-11-10T08:00:04.690Z,83.42
2022-11-10T08:01:03.688Z,79.46
2022-11-10T08:02:03.761Z,73.97
2022-11-10T08:03:03.688Z,72.01
2022-11-10T08:04:03.662Z,70.52
2022-11-10T08:05:03.664Z,68.63
2022-11-10T08:06:03.675Z,67.86
2022-11-10T08:07:03.720Z,68.13
2022-11-10T08:08:03.642Z,66.69
2022-11-10T08:09:03.634Z,66.42
2022-11-10T08:10:03.641Z,64.98
2022-11-10T08:11:03.641Z,64.41
2022-11-10T08:12:03.634Z,62.34
2022-11-10T08:13:03.600Z,61.50
2022-11-10T08:14:03.609Z,61.13
2022-11-10T08:15:03.597Z,62.80
2022-11-10T08:16:03.607Z,62.90
2022-11-10T08:17:03.617Z,64.04
2022-11-10T08:18:03.597Z,65.05
2022-11-10T08:19:03.581Z,63.78
2022-11-10T08:20:03.563Z,62.30
2022-11-10T08:21:03.581Z,63.31
2022-11-10T08:22:03.586Z,62.81
2022-11-10T08:23:03.556Z,61.82
2022-11-10T08:24:03.545Z,62.07
2022-11-10T08:25:03.542Z,62.26
2022-11-10T08:26:03.558Z,63.10
2022-11-10T08:27:03.554Z,66.66
2022-11-10T08:28:03.521Z,67.13
2022-11-10T08:29:03.543Z,66.96
2022-11-10T08:30:03.514Z,65.99
2022-11-10T08:31:05.741Z,67.29
2022-11-10T08:32:03.506Z,71.06
2022-11-10T08:33:03.496Z,73.70
2022-11-10T08:34:03.513Z,74.04
2022-11-10T08:35:03.478Z,74.54
2022-11-10T08:36:03.489Z,74.24
2022-11-10T08:37:03.486Z,73.59
2022-11-10T08:38:08.959Z,72.89
2022-11-10T08:39:05.461Z,71.94
2022-11-10T08:40:03.453Z,71.60
2022-11-10T08:41:03.482Z,70.53
2022-11-10T08:42:03.476Z,66.80
2022-11-10T08:43:03.443Z,66.27
2022-11-10T08:44:04.123Z,65.89
2022-11-10T08:45:03.450Z,64.95
2022-11-10T08:46:03.439Z,64.53
2022-11-10T08:47:03.423Z,61.79
2022-11-10T08:48:03.418Z,61.69
2022-11-10T08:49:03.390Z,61.15
2022-11-10T08:50:03.379Z,60.29
2022-11-10T08:51:03.394Z,61.04
2022-11-10T08:52:03.391Z,64.61
2022-11-10T08:53:03.364Z,64.92
2022-11-10T08:54:03.377Z,66.73
2022-11-10T08:55:03.358Z,65.83
2022-11-10T08:56:03.391Z,64.49
2022-11-10T08:57:03.404Z,62.51
2022-11-10T08:58:03.336Z,66.93
2022-11-10T08:59:03.342Z,67.27
2022-11-10T09:00:03.324Z,66.27
2022-11-10T09:01:03.335Z,67.13
2022-11-10T09:02:03.327Z,66.22
2022-11-10T09:03:03.315Z,65.19
2022-11-10T09:04:03.317Z,64.62
2022-11-10T09:05:03.459Z,64.58
2022-11-10T09:06:03.302Z,68.47
2022-11-10T09:07:03.304Z,69.35
2022-11-10T09:08:03.297Z,68.24
2022-11-10T09:09:03.346Z,64.65
2022-11-10T09:10:07.615Z,64.62
2022-11-10T09:11:04.381Z,64.56
2022-11-10T09:12:03.255Z,60.24
2022-11-10T09:13:03.269Z,60.98
2022-11-10T09:14:03.285Z,57.92
2022-11-10T09:15:03.263Z,57.79
2022-11-10T09:16:03.254Z,57.37
2022-11-10T09:17:03.333Z,54.99
2022-11-10T09:18:03.242Z,53.14
2022-11-10T09:19:03.234Z,56.27
2022-11-10T09:20:03.317Z,55.17
2022-11-10T09:21:03.231Z,55.20
2022-11-10T09:22:03.346Z,58.24
2022-11-10T09:23:03.193Z,62.71
2022-11-10T09:24:03.192Z,65.32
2022-11-10T09:25:03.178Z,68.10
2022-11-10T09:26:03.170Z,70.36
2022-11-10T09:27:03.176Z,72.72
2022-11-10T09:28:03.189Z,73.29
2022-11-10T09:29:03.164Z,74.17
2022-11-10T09:30:03.159Z,76.84
2022-11-10T09:31:03.171Z,75.73
2022-11-10T09:32:03.175Z,76.78
2022-11-10T09:33:03.188Z,77.22
2022-11-10T09:34:03.137Z,76.81
2022-11-10T09:35:03.134Z,76.91
2022-11-10T09:36:03.126Z,77.56
2022-11-10T09:37:03.117Z,78.71
2022-11-10T09:38:03.131Z,79.66
2022-11-10T09:39:03.216Z,78.95
2022-11-10T09:40:03.104Z,80.41
2022-11-10T09:41:03.147Z,80.65
2022-11-10T09:42:03.090Z,81.34
2022-11-10T09:43:03.084Z,83.25
2022-11-10T09:44:03.131Z,84.27
2022-11-10T09:45:03.075Z,84.43
2022-11-10T09:46:03.070Z,83.62
2022-11-10T09:47:03.053Z,83.68
2022-11-10T09:48:03.051Z,84.03
2022-11-10T09:49:03.046Z,84.43
2022-11-10T09:50:03.058Z,83.37
2022-11-10T09:51:03.040Z,82.21
2022-11-10T09:52:03.031Z,83.64
2022-11-10T09:53:03.055Z,83.70
2022-11-10T09:54:03.032Z,81.91
2022-11-10T09:55:03.027Z,82.21
2022-11-10T09:56:02.994Z,82.42
2022-11-10T09:57:03.000Z,82.32
2022-11-10T09:58:03.014Z,82.15
2022-11-10T09:59:02.970Z,83.07
2022-11-10T10:00:02.980Z,83.72
2022-11-10T10:01:03.036Z,83.62
2022-11-10T10:02:02.962Z,83.98
2022-11-10T10:03:02.966Z,83.98
2022-11-10T10:04:02.952Z,83.72
2022-11-10T10:05:02.937Z,84.58
2022-11-10T10:06:03.134Z,86.15
2022-11-10T10:07:11.268Z,86.21
2022-11-10T10:08:04.940Z,86.21
2022-11-10T10:09:02.932Z,85.35
2022-11-10T10:10:02.959Z,82.82
2022-11-10T10:11:02.920Z,82.28
2022-11-10T10:12:03.053Z,83.13
2022-11-10T10:13:02.900Z,83.60
2022-11-10T10:14:02.908Z,84.25
2022-11-10T10:15:02.903Z,83.60
2022-11-10T10:16:02.889Z,83.64
2022-11-10T10:17:02.912Z,82.73
2022-11-10T10:18:02.887Z,82.21
2022-11-10T10:19:02.866Z,82.99
2022-11-10T10:20:02.874Z,82.75
2022-11-10T10:21:02.864Z,83.46
2022-11-10T10:22:02.854Z,82.34
2022-11-10T10:23:02.895Z,83.50
2022-11-10T10:24:10.240Z,83.40
2022-11-10T10:25:04.916Z,82.85
2022-11-10T10:26:02.848Z,82.59
2022-11-10T10:27:02.818Z,83.91
2022-11-10T10:28:02.855Z,84.62
2022-11-10T10:29:02.807Z,83.03
2022-11-10T10:30:02.808Z,82.62
2022-11-10T10:31:02.795Z,83.54
2022-11-10T10:32:02.806Z,82.73
2022-11-10T10:33:02.787Z,83.03
2022-11-10T10:34:02.897Z,83.54
2022-11-10T10:35:02.772Z,83.48
2022-11-10T10:36:02.763Z,84.86
2022-11-10T10:37:03.778Z,84.82
2022-11-10T10:38:03.764Z,85.33
2022-11-10T10:39:02.777Z,85.39
2022-11-10T10:40:02.867Z,84.68
2022-11-10T10:41:02.774Z,84.52
2022-11-10T10:42:02.727Z,84.48
2022-11-10T10:43:02.744Z,85.19
2022-11-10T10:44:02.758Z,84.78
2022-11-10T10:45:02.852Z,82.89
2022-11-10T10:46:02.717Z,83.81
2022-11-10T10:47:02.706Z,83.97
2022-11-10T10:48:02.703Z,84.07
2022-11-10T10:49:26.730Z,84.23
2022-11-10T10:50:02.723Z,83.69
2022-11-10T10:51:02.682Z,80.77
2022-11-10T10:52:02.653Z,82.43
2022-11-10T10:53:02.666Z,82.43
2022-11-10T10:54:02.662Z,81.59
2022-11-10T10:55:02.643Z,80.68
2022-11-10T10:56:02.764Z,81.23
2022-11-10T10:57:02.641Z,82.14
2022-11-10T10:58:02.652Z,82.45
2022-11-10T10:59:02.633Z,82.51
2022-11-10T11:00:02.633Z,83.73
2022-11-10T11:01:02.687Z,81.31
2022-11-10T11:02:02.605Z,82.73
2022-11-10T11:03:04.631Z,79.99
2022-11-10T11:04:02.601Z,80.74
2022-11-10T11:05:02.617Z,81.19
2022-11-10T11:06:02.614Z,83.22
2022-11-10T11:07:02.660Z,82.92
2022-11-10T11:08:02.571Z,82.34
2022-11-10T11:09:02.576Z,83.76
2022-11-10T11:10:02.593Z,83.20
2022-11-10T11:11:02.563Z,83.74
2022-11-10T11:12:02.784Z,83.34
2022-11-10T11:13:02.559Z,84.05
2022-11-10T11:14:02.552Z,84.39
2022-11-10T11:15:02.567Z,84.39
2022-11-10T11:16:02.533Z,85.00
2022-11-10T11:17:02.580Z,84.39
2022-11-10T11:18:02.657Z,84.19
2022-11-10T11:19:02.506Z,83.22
2022-11-10T11:20:02.509Z,81.35
2022-11-10T11:21:02.510Z,79.47
2022-11-10T11:22:02.525Z,75.38
2022-11-10T11:23:02.531Z,73.02
2022-11-10T11:24:02.507Z,71.30
2022-11-10T11:25:02.465Z,68.88
2022-11-10T11:26:02.473Z,67.10
2022-11-10T11:27:02.478Z,66.27
2022-11-10T11:28:02.491Z,66.30
2022-11-10T11:29:02.492Z,64.83
2022-11-10T11:30:02.435Z,63.76
2022-11-10T11:31:02.436Z,64.10
2022-11-10T11:32:02.430Z,62.26
2022-11-10T11:33:02.444Z,61.55
2022-11-10T11:34:02.559Z,62.86
2022-11-10T11:35:02.423Z,63.09
2022-11-10T11:36:02.415Z,64.59
2022-11-10T11:37:06.899Z,67.07
2022-11-10T11:38:03.401Z,68.27
2022-11-10T11:39:02.402Z,67.93
2022-11-10T11:40:02.418Z,69.35
2022-11-10T11:41:02.387Z,68.13
2022-11-10T11:42:02.385Z,68.81
2022-11-10T11:43:02.375Z,70.22
2022-11-10T11:44:02.356Z,72.24
2022-11-10T11:45:02.455Z,73.32
2022-11-10T11:46:02.346Z,75.32
2022-11-10T11:47:02.351Z,75.56
2022-11-10T11:48:02.355Z,77.04
2022-11-10T11:49:02.332Z,73.86
2022-11-10T11:50:02.340Z,75.04
2022-11-10T11:51:02.360Z,75.62
2022-11-10T11:52:02.399Z,75.24
2022-11-10T11:53:02.321Z,73.96
2022-11-10T11:54:02.363Z,73.12
2022-11-10T11:55:02.306Z,74.00
2022-11-10T11:56:02.383Z,76.10
2022-11-10T11:57:02.287Z,75.56
2022-11-10T11:58:02.272Z,77.05
2022-11-10T11:59:02.277Z,77.94
2022-11-10T12:00:36.360Z,77.15
2022-11-10T12:01:02.263Z,74.74
2022-11-10T12:02:02.450Z,72.08
2022-11-10T12:03:02.299Z,70.46
2022-11-10T12:04:02.240Z,68.98
2022-11-10T12:05:02.256Z,66.46
2022-11-10T12:06:02.235Z,69.35
2022-11-10T12:07:02.285Z,70.05
2022-11-10T12:08:02.212Z,71.40
2022-11-10T12:09:02.210Z,69.51
2022-11-10T12:10:02.198Z,70.56
2022-11-10T12:11:02.207Z,69.75
2022-11-10T12:12:02.211Z,71.88
2022-11-10T12:13:02.298Z,72.58
2022-11-10T12:14:02.206Z,75.05
2022-11-10T12:15:02.186Z,76.81
2022-11-10T12:16:02.173Z,78.88
2022-11-10T12:17:36.891Z,77.22
2022-11-10T12:18:02.292Z,76.47
2022-11-10T12:19:02.180Z,77.01
2022-11-10T12:20:02.183Z,77.01
2022-11-10T12:21:02.145Z,77.76
2022-11-10T12:22:02.146Z,77.90
2022-11-10T12:23:02.138Z,78.30
2022-11-10T12:24:07.358Z,79.05
2022-11-10T12:25:03.137Z,80.03
2022-11-10T12:26:02.159Z,79.12
2022-11-10T12:27:02.120Z,78.88
2022-11-10T12:28:02.109Z,77.62
2022-11-10T12:29:02.155Z,78.71
2022-11-10T12:30:02.108Z,79.12
2022-11-10T12:31:02.321Z,78.68
2022-11-10T12:32:02.077Z,79.46
2022-11-10T12:33:02.069Z,78.61
2022-11-10T12:34:02.065Z,76.64
2022-11-10T12:35:03.210Z,74.74
2022-11-10T12:36:02.397Z,75.62
2022-11-10T12:37:02.046Z,75.46
2022-11-10T12:38:02.054Z,77.15
2022-11-10T12:39:02.116Z,79.22
2022-11-10T12:40:02.074Z,78.00
2022-11-10T12:41:20.955Z,78.47
2022-11-10T12:42:02.018Z,79.08
2022-11-10T12:43:02.020Z,77.36
2022-11-10T12:44:02.009Z,77.66
2022-11-10T12:45:01.987Z,78.81
2022-11-10T12:46:02.099Z,79.66
2022-11-10T12:47:01.985Z,79.29
2022-11-10T12:48:01.982Z,79.53
2022-11-10T12:49:02.000Z,79.70
2022-11-10T12:50:02.012Z,80.47
2022-11-10T12:51:01.963Z,79.66
2022-11-10T12:52:02.072Z,80.17